DETJA EDDG-EDLP
Flight info
| Callsign | DETJA |
|---|---|
| Flight time | 0h 27m |
| Altitude | 3000 |
| Route | EDDG DCT EDVK |
| Aircraft | P28A/L-VGD/A |
Departure
| Time | 2026-04-25 14:41 |
|---|---|
| Airport | Münster Osnabrück Airport (EDDG) |
Arrival
| Time | 2026-04-25 15:09 |
|---|---|
| Airport | Paderborn Lippstadt Airport (EDLP) |
| Time | Latitude | Longitude | Altitude | Speed | Heading |
|---|---|---|---|---|---|
| 2026-04-25 14:29 | 52.13157 | 7.68234 | 157 ft | 0 kts | 271° |
| 2026-04-25 14:35 | 52.13158 | 7.68224 | 157 ft | 2 kts | 277° |
| 2026-04-25 14:35 | 52.13178 | 7.68235 | 157 ft | 10 kts | 72° |
| 2026-04-25 14:36 | 52.13198 | 7.68331 | 158 ft | 8 kts | 66° |
| 2026-04-25 14:36 | 52.13254 | 7.68321 | 159 ft | 10 kts | 338° |
| 2026-04-25 14:36 | 52.13318 | 7.68290 | 160 ft | 5 kts | 326° |
| 2026-04-25 14:36 | 52.13319 | 7.68287 | 160 ft | 0 kts | 299° |
| 2026-04-25 14:38 | 52.13320 | 7.68286 | 160 ft | 1 kts | 305° |
| 2026-04-25 14:38 | 52.13324 | 7.68282 | 161 ft | 0 kts | 340° |
| 2026-04-25 14:40 | 52.13327 | 7.68280 | 161 ft | 2 kts | 333° |
| 2026-04-25 14:40 | 52.13387 | 7.68232 | 160 ft | 11 kts | 311° |
| 2026-04-25 14:40 | 52.13401 | 7.68179 | 160 ft | 2 kts | 253° |
| 2026-04-25 14:40 | 52.13342 | 7.67895 | 159 ft | 50 kts | 253° |
| 2026-04-25 14:41 | 52.13197 | 7.67254 | 267 ft | 65 kts | 253° |
| 2026-04-25 14:41 | 52.13042 | 7.66555 | 474 ft | 66 kts | 251° |
| 2026-04-25 14:41 | 52.12622 | 7.66243 | 661 ft | 83 kts | 176° |
| 2026-04-25 14:41 | 52.12061 | 7.66761 | 775 ft | 93 kts | 154° |
| 2026-04-25 14:42 | 52.11553 | 7.67330 | 1073 ft | 87 kts | 149° |
| 2026-04-25 14:42 | 52.11383 | 7.67521 | 1145 ft | 88 kts | 152° |
| 2026-04-25 14:42 | 52.10412 | 7.67833 | 1438 ft | 92 kts | 209° |
| 2026-04-25 14:42 | 52.09896 | 7.67142 | 1452 ft | 103 kts | 236° |
| 2026-04-25 14:43 | 52.09438 | 7.66235 | 1494 ft | 108 kts | 239° |
| 2026-04-25 14:43 | 52.08917 | 7.65347 | 1479 ft | 107 kts | 233° |
| 2026-04-25 14:43 | 52.08404 | 7.64484 | 1424 ft | 108 kts | 233° |
| 2026-04-25 14:43 | 52.07860 | 7.63632 | 1413 ft | 111 kts | 229° |
| 2026-04-25 14:44 | 52.07232 | 7.62870 | 1395 ft | 113 kts | 222° |
| 2026-04-25 14:44 | 52.06536 | 7.62247 | 1389 ft | 113 kts | 216° |
| 2026-04-25 14:44 | 52.05830 | 7.61708 | 1388 ft | 115 kts | 210° |
| 2026-04-25 14:44 | 52.05082 | 7.61228 | 1362 ft | 112 kts | 208° |
| 2026-04-25 14:45 | 52.04343 | 7.60801 | 1311 ft | 114 kts | 205° |
| 2026-04-25 14:45 | 52.03570 | 7.60527 | 1296 ft | 120 kts | 185° |
| 2026-04-25 14:45 | 52.02869 | 7.61244 | 1302 ft | 126 kts | 121° |
| 2026-04-25 14:45 | 52.02605 | 7.62563 | 1572 ft | 120 kts | 97° |
| 2026-04-25 14:46 | 52.02510 | 7.63864 | 1862 ft | 112 kts | 90° |
| 2026-04-25 14:46 | 52.02452 | 7.65081 | 2078 ft | 109 kts | 90° |
| 2026-04-25 14:46 | 52.02412 | 7.66333 | 2311 ft | 113 kts | 88° |
| 2026-04-25 14:46 | 52.02420 | 7.67576 | 2624 ft | 108 kts | 85° |
| 2026-04-25 14:47 | 52.02443 | 7.68761 | 2975 ft | 105 kts | 84° |
| 2026-04-25 14:47 | 52.02444 | 7.69180 | 2995 ft | 115 kts | 89° |
| 2026-04-25 14:47 | 52.01929 | 7.71362 | 3014 ft | 130 kts | 117° |
| 2026-04-25 14:47 | 52.01490 | 7.72637 | 3014 ft | 129 kts | 121° |
| 2026-04-25 14:48 | 52.01043 | 7.73913 | 3018 ft | 131 kts | 120° |
| 2026-04-25 14:48 | 52.00596 | 7.75194 | 3018 ft | 129 kts | 120° |
| 2026-04-25 14:48 | 52.00163 | 7.76467 | 3029 ft | 130 kts | 120° |
| 2026-04-25 14:48 | 51.99708 | 7.77803 | 3010 ft | 135 kts | 119° |
| 2026-04-25 14:49 | 51.99253 | 7.79105 | 3014 ft | 132 kts | 120° |
| 2026-04-25 14:49 | 51.98806 | 7.80400 | 3013 ft | 130 kts | 120° |
| 2026-04-25 14:49 | 51.98378 | 7.81661 | 3016 ft | 130 kts | 120° |
| 2026-04-25 14:49 | 51.97926 | 7.82993 | 3023 ft | 141 kts | 118° |
| 2026-04-25 14:50 | 51.97448 | 7.84405 | 3020 ft | 142 kts | 120° |
| 2026-04-25 14:50 | 51.96973 | 7.85786 | 3028 ft | 137 kts | 119° |
| 2026-04-25 14:50 | 51.96499 | 7.87160 | 3013 ft | 140 kts | 120° |
| 2026-04-25 14:50 | 51.96028 | 7.88527 | 3021 ft | 138 kts | 120° |
| 2026-04-25 14:51 | 51.95574 | 7.89888 | 3012 ft | 136 kts | 119° |
| 2026-04-25 14:51 | 51.95102 | 7.91176 | 3012 ft | 130 kts | 124° |
| 2026-04-25 14:51 | 51.94644 | 7.92422 | 3010 ft | 127 kts | 121° |
| 2026-04-25 14:51 | 51.94181 | 7.93684 | 3014 ft | 133 kts | 123° |
| 2026-04-25 14:52 | 51.93723 | 7.94924 | 3019 ft | 127 kts | 122° |
| 2026-04-25 14:52 | 51.93273 | 7.96164 | 3028 ft | 130 kts | 120° |
| 2026-04-25 14:52 | 51.92805 | 7.97410 | 3016 ft | 128 kts | 123° |
| 2026-04-25 14:52 | 51.92645 | 7.97825 | 3032 ft | 130 kts | 123° |
| 2026-04-25 14:53 | 51.91875 | 7.99950 | 3018 ft | 136 kts | 122° |
| 2026-04-25 14:53 | 51.91439 | 8.01262 | 3012 ft | 127 kts | 118° |
| 2026-04-25 14:53 | 51.91020 | 8.02493 | 3016 ft | 126 kts | 122° |
| 2026-04-25 14:53 | 51.90610 | 8.03744 | 3032 ft | 129 kts | 120° |
| 2026-04-25 14:54 | 51.90179 | 8.05030 | 3017 ft | 128 kts | 120° |
| 2026-04-25 14:54 | 51.89760 | 8.06321 | 3030 ft | 132 kts | 118° |
| 2026-04-25 14:54 | 51.89304 | 8.07647 | 3022 ft | 133 kts | 120° |
| 2026-04-25 14:54 | 51.88872 | 8.08958 | 3027 ft | 130 kts | 120° |
| 2026-04-25 14:55 | 51.88446 | 8.10237 | 3015 ft | 133 kts | 121° |
| 2026-04-25 14:55 | 51.88007 | 8.11522 | 3021 ft | 130 kts | 121° |
| 2026-04-25 14:55 | 51.87555 | 8.12802 | 3016 ft | 133 kts | 119° |
| 2026-04-25 14:55 | 51.87099 | 8.14101 | 3011 ft | 131 kts | 121° |
| 2026-04-25 14:56 | 51.86650 | 8.15350 | 3011 ft | 126 kts | 122° |
| 2026-04-25 14:56 | 51.86185 | 8.16573 | 3015 ft | 133 kts | 122° |
| 2026-04-25 14:56 | 51.85873 | 8.17430 | 3004 ft | 132 kts | 121° |
| 2026-04-25 14:56 | 51.85410 | 8.18688 | 3019 ft | 131 kts | 122° |
| 2026-04-25 14:57 | 51.84950 | 8.19942 | 3017 ft | 127 kts | 121° |
| 2026-04-25 14:57 | 51.84501 | 8.21186 | 3006 ft | 127 kts | 120° |
| 2026-04-25 14:57 | 51.84064 | 8.22446 | 3011 ft | 127 kts | 122° |
| 2026-04-25 14:57 | 51.83618 | 8.23681 | 3004 ft | 127 kts | 122° |
| 2026-04-25 14:58 | 51.83174 | 8.24918 | 3017 ft | 127 kts | 123° |
| 2026-04-25 14:58 | 51.82697 | 8.26202 | 3011 ft | 139 kts | 122° |
| 2026-04-25 14:58 | 51.82223 | 8.27515 | 3007 ft | 133 kts | 122° |
| 2026-04-25 14:58 | 51.81777 | 8.28801 | 3011 ft | 131 kts | 124° |
| 2026-04-25 14:59 | 51.81307 | 8.30103 | 3013 ft | 137 kts | 120° |
| 2026-04-25 14:59 | 51.80854 | 8.31410 | 3002 ft | 128 kts | 121° |
| 2026-04-25 14:59 | 51.80437 | 8.32610 | 3012 ft | 120 kts | 119° |
| 2026-04-25 14:59 | 51.79990 | 8.33828 | 3008 ft | 126 kts | 123° |
| 2026-04-25 15:00 | 51.79555 | 8.35047 | 3018 ft | 127 kts | 124° |
| 2026-04-25 15:00 | 51.79111 | 8.36322 | 3015 ft | 134 kts | 120° |
| 2026-04-25 15:00 | 51.78653 | 8.37628 | 3012 ft | 131 kts | 124° |
| 2026-04-25 15:00 | 51.78208 | 8.38898 | 3008 ft | 129 kts | 120° |
| 2026-04-25 15:01 | 51.77786 | 8.40143 | 3006 ft | 124 kts | 122° |
| 2026-04-25 15:01 | 51.77353 | 8.41351 | 3014 ft | 126 kts | 120° |
| 2026-04-25 15:01 | 51.76924 | 8.42612 | 3006 ft | 129 kts | 121° |
| 2026-04-25 15:01 | 51.76494 | 8.43841 | 3009 ft | 126 kts | 123° |
| 2026-04-25 15:02 | 51.76047 | 8.45099 | 3008 ft | 130 kts | 121° |
| 2026-04-25 15:02 | 51.75600 | 8.46369 | 2862 ft | 131 kts | 123° |
| 2026-04-25 15:02 | 51.75156 | 8.47656 | 2738 ft | 129 kts | 122° |
| 2026-04-25 15:02 | 51.74723 | 8.48934 | 2580 ft | 130 kts | 122° |
| 2026-04-25 15:03 | 51.74282 | 8.50228 | 2490 ft | 134 kts | 122° |
| 2026-04-25 15:03 | 51.73823 | 8.51488 | 2469 ft | 128 kts | 123° |
| 2026-04-25 15:03 | 51.73381 | 8.52773 | 2273 ft | 134 kts | 122° |
| 2026-04-25 15:03 | 51.72923 | 8.54046 | 2233 ft | 128 kts | 125° |
| 2026-04-25 15:04 | 51.72453 | 8.55280 | 2051 ft | 133 kts | 124° |
| 2026-04-25 15:04 | 51.71950 | 8.56522 | 2062 ft | 130 kts | 129° |
| 2026-04-25 15:04 | 51.71463 | 8.57770 | 2011 ft | 131 kts | 123° |
| 2026-04-25 15:04 | 51.71005 | 8.59018 | 1952 ft | 128 kts | 123° |
| 2026-04-25 15:05 | 51.70560 | 8.60224 | 1956 ft | 124 kts | 124° |
| 2026-04-25 15:05 | 51.70102 | 8.61429 | 1931 ft | 131 kts | 124° |
| 2026-04-25 15:05 | 51.69499 | 8.62481 | 1941 ft | 123 kts | 159° |
| 2026-04-25 15:06 | 51.67933 | 8.63710 | 1688 ft | 125 kts | 163° |
| 2026-04-25 15:06 | 51.67159 | 8.64205 | 1618 ft | 116 kts | 175° |
| 2026-04-25 15:06 | 51.66405 | 8.64251 | 1680 ft | 103 kts | 194° |
| 2026-04-25 15:06 | 51.65698 | 8.64249 | 1672 ft | 102 kts | 180° |
| 2026-04-25 15:07 | 51.65032 | 8.64547 | 1682 ft | 98 kts | 166° |
| 2026-04-25 15:07 | 51.64414 | 8.65009 | 1629 ft | 100 kts | 160° |
| 2026-04-25 15:07 | 51.63827 | 8.65606 | 1561 ft | 97 kts | 151° |
| 2026-04-25 15:07 | 51.63249 | 8.66007 | 1461 ft | 83 kts | 194° |
| 2026-04-25 15:08 | 51.62841 | 8.65500 | 1252 ft | 74 kts | 252° |
| 2026-04-25 15:08 | 51.62651 | 8.64777 | 1054 ft | 69 kts | 247° |
| 2026-04-25 15:08 | 51.62416 | 8.64140 | 898 ft | 64 kts | 244° |
| 2026-04-25 15:08 | 51.62189 | 8.63558 | 755 ft | 60 kts | 241° |
| 2026-04-25 15:09 | 51.61977 | 8.63029 | 683 ft | 52 kts | 242° |
| 2026-04-25 15:09 | 51.61817 | 8.62628 | 683 ft | 33 kts | 238° |
| 2026-04-25 15:09 | 51.61655 | 8.62232 | 692 ft | 18 kts | 239° |
| 2026-04-25 15:10 | 51.61585 | 8.62058 | 695 ft | 19 kts | 237° |
| 2026-04-25 15:10 | 51.61512 | 8.61883 | 699 ft | 14 kts | 236° |
| 2026-04-25 15:10 | 51.61440 | 8.61947 | 706 ft | 15 kts | 96° |
| 2026-04-25 15:11 | 51.61429 | 8.61989 | 703 ft | 0 kts | 132° |
| 2026-04-25 15:12 | 51.61427 | 8.61992 | 704 ft | 2 kts | 134° |
| 2026-04-25 15:12 | 51.61395 | 8.62022 | 712 ft | 8 kts | 159° |
| 2026-04-25 15:12 | 51.61305 | 8.62003 | 716 ft | 16 kts | 191° |
| 2026-04-25 15:12 | 51.61256 | 8.61987 | 723 ft | 0 kts | 192° |
| 2026-04-25 15:13 | 51.61229 | 8.61982 | 723 ft | 7 kts | 158° |
| 2026-04-25 15:13 | 51.61299 | 8.62160 | 724 ft | 9 kts | 44° |